Annadale, South Africa
Current Conditions -  °F | °C
As of 12:00 AM on Wednesday 28 Jan 2015 (Local Time) from FAPP Reporting Station
NA  
Wind Chill: 73°   Ceiling: NA
Heat Index: 73°   Visibility: NA
Dew Point: 57°   Wind: 3mph
Humidity: 57%   Direction: 90°E
Pressure: 30.03"   Gusts: NA
Location:  23.88°S, 29.45°E
Report Text: FAPP 272200Z AUTO 09003KT //// // ////// 23/14 Q1017
Loading
Personal Weather Stations






























Interactive Weather Map New forecast layout! Learn more

10-Day Weather Forecast

Advertisements
Track Severe Weather on mobile